createdAt,value
2022-08-03T00:10:52.120Z,87.56
2022-08-03T00:25:57.552Z,89.22
2022-08-03T00:41:03.066Z,88.89
2022-08-03T00:56:08.787Z,90.37
2022-08-03T01:11:22.672Z,92.54
2022-08-03T01:26:57.542Z,90.18
2022-08-03T01:42:07.016Z,90.30
2022-08-03T01:57:13.615Z,93.52
2022-08-03T02:12:20.135Z,94.20
2022-08-03T02:27:28.070Z,93.46
2022-08-03T02:42:34.899Z,92.59
2022-08-03T02:57:41.924Z,94.70
2022-08-03T03:12:49.842Z,95.58
2022-08-03T03:27:55.450Z,95.04
2022-08-03T03:43:03.383Z,96.21
2022-08-03T03:58:09.676Z,95.58
2022-08-03T04:13:18.928Z,95.43
2022-08-03T04:28:30.885Z,92.18
2022-08-03T04:43:40.986Z,91.64
2022-08-03T04:58:46.642Z,89.66
2022-08-03T05:13:52.221Z,87.42
2022-08-03T05:28:57.812Z,84.39
2022-08-03T05:44:03.389Z,80.67
2022-08-03T05:59:35.864Z,76.46
2022-08-03T06:14:34.511Z,72.46
2022-08-03T06:29:40.015Z,69.38
2022-08-03T06:44:45.458Z,67.17
2022-08-03T07:00:10.871Z,63.25
2022-08-03T07:15:20.461Z,61.07
2022-08-03T07:30:42.416Z,58.32
2022-08-03T07:45:48.112Z,56.93
2022-08-03T08:00:54.276Z,54.83
2022-08-03T08:16:00.047Z,53.79
2022-08-03T08:31:05.672Z,52.06
2022-08-03T08:46:23.659Z,51.01
2022-08-03T09:01:30.297Z,47.89
2022-08-03T09:16:35.970Z,48.17
2022-08-03T09:31:44.339Z,48.16
2022-08-03T09:46:54.668Z,47.08
2022-08-03T10:02:02.087Z,42.96
2022-08-03T10:17:07.709Z,42.52
2022-08-03T10:32:17.573Z,42.41
2022-08-03T10:47:23.301Z,41.75
2022-08-03T11:03:09.287Z,41.08
2022-08-03T11:18:15.904Z,38.96
2022-08-03T11:33:33.713Z,38.11
2022-08-03T11:48:41.557Z,34.57
2022-08-03T12:03:47.499Z,36.95
2022-08-03T12:18:59.139Z,36.30
2022-08-03T12:34:07.545Z,35.60
2022-08-03T12:49:18.057Z,36.59
2022-08-03T13:04:30.079Z,37.17
2022-08-03T13:19:40.020Z,33.92
2022-08-03T13:34:45.708Z,33.92
2022-08-03T13:50:00.497Z,35.86
2022-08-03T14:05:09.094Z,36.25
2022-08-03T14:20:38.849Z,38.93
2022-08-03T14:35:42.129Z,38.42
2022-08-03T14:50:51.470Z,39.49
2022-08-03T15:05:58.140Z,39.72
2022-08-03T15:21:04.023Z,40.42
2022-08-03T15:36:10.046Z,41.83
2022-08-03T15:51:16.014Z,42.28
2022-08-03T16:06:35.234Z,41.79
2022-08-03T16:21:48.802Z,41.78
2022-08-03T16:36:56.093Z,41.42
2022-08-03T16:52:02.043Z,43.82
2022-08-03T17:07:08.795Z,45.63
2022-08-03T17:22:18.639Z,45.55
2022-08-03T17:37:50.018Z,48.46
2022-08-03T17:52:51.700Z,48.12
2022-08-03T18:08:02.347Z,50.08
2022-08-03T18:23:08.614Z,51.17
2022-08-03T18:38:16.768Z,58.48
2022-08-03T18:54:02.532Z,62.49
2022-08-03T19:09:03.159Z,68.09
2022-08-03T19:24:10.555Z,70.58
2022-08-03T19:39:16.738Z,69.23
2022-08-03T19:54:25.537Z,69.42
2022-08-03T20:09:36.880Z,72.48
2022-08-03T20:24:53.027Z,75.91
2022-08-03T20:39:58.844Z,72.88
2022-08-03T20:55:13.028Z,78.81
2022-08-03T21:10:24.708Z,80.95
2022-08-03T21:25:35.221Z,82.54
2022-08-03T21:40:41.778Z,67.61
2022-08-03T21:55:54.869Z,77.35
2022-08-03T22:11:04.366Z,80.78
2022-08-03T22:26:13.493Z,77.39
2022-08-03T22:41:20.073Z,70.77
2022-08-03T22:56:26.343Z,70.16
2022-08-03T23:11:32.070Z,70.16
2022-08-03T23:26:39.575Z,69.74
2022-08-03T23:41:46.855Z,76.67
2022-08-03T23:57:00.579Z,78.22
